sensor_id;sensor_type;location;lat;lon;timestamp;pressure;altitude;pressure_sealevel;temperature;humidity
16613;BME280;8419;52.358;9.752;2023-03-22T00:02:44;100428.00;;;19.01;41.08
16613;BME280;8419;52.358;9.752;2023-03-22T00:05:29;100426.00;;;19.05;41.04
16613;BME280;8419;52.358;9.752;2023-03-22T00:08:14;100421.00;;;19.08;40.98
16613;BME280;8419;52.358;9.752;2023-03-22T00:11:00;100423.00;;;19.03;41.07
16613;BME280;8419;52.358;9.752;2023-03-22T00:13:46;100423.00;;;18.99;41.10
16613;BME280;8419;52.358;9.752;2023-03-22T00:16:31;100422.00;;;19.18;40.79
16613;BME280;8419;52.358;9.752;2023-03-22T00:19:16;100426.00;;;19.30;40.55
16613;BME280;8419;52.358;9.752;2023-03-22T00:22:02;100426.00;;;19.33;40.45
16613;BME280;8419;52.358;9.752;2023-03-22T00:24:50;100422.00;;;19.37;40.39
16613;BME280;8419;52.358;9.752;2023-03-22T00:27:35;100421.00;;;19.36;40.39
16613;BME280;8419;52.358;9.752;2023-03-22T00:30:20;100421.00;;;19.36;40.35
16613;BME280;8419;52.358;9.752;2023-03-22T00:33:06;100413.00;;;19.35;40.31
16613;BME280;8419;52.358;9.752;2023-03-22T00:35:53;100414.00;;;19.32;40.35
16613;BME280;8419;52.358;9.752;2023-03-22T00:38:40;100405.00;;;19.27;40.35
16613;BME280;8419;52.358;9.752;2023-03-22T00:41:26;100410.00;;;19.22;40.31
16613;BME280;8419;52.358;9.752;2023-03-22T00:44:11;100409.00;;;19.10;40.46
16613;BME280;8419;52.358;9.752;2023-03-22T00:46:57;100410.00;;;19.01;40.55
16613;BME280;8419;52.358;9.752;2023-03-22T00:49:42;100407.00;;;18.96;40.62
16613;BME280;8419;52.358;9.752;2023-03-22T00:52:27;100393.00;;;18.80;40.83
16613;BME280;8419;52.358;9.752;2023-03-22T00:55:13;100395.00;;;18.89;40.63
16613;BME280;8419;52.358;9.752;2023-03-22T00:57:59;100392.00;;;18.84;40.68
16613;BME280;8419;52.358;9.752;2023-03-22T01:00:44;100394.00;;;18.65;41.03
16613;BME280;8419;52.358;9.752;2023-03-22T01:03:29;100389.00;;;18.53;41.22
16613;BME280;8419;52.358;9.752;2023-03-22T01:06:15;100378.00;;;18.48;41.34
16613;BME280;8419;52.358;9.752;2023-03-22T01:09:00;100375.00;;;18.40;41.47
16613;BME280;8419;52.358;9.752;2023-03-22T01:11:45;100381.00;;;18.45;41.49
16613;BME280;8419;52.358;9.752;2023-03-22T01:14:30;100375.00;;;18.48;41.47
16613;BME280;8419;52.358;9.752;2023-03-22T01:17:15;100359.00;;;18.56;41.41
16613;BME280;8419;52.358;9.752;2023-03-22T01:20:01;100369.00;;;18.57;41.44
16613;BME280;8419;52.358;9.752;2023-03-22T01:22:46;100363.00;;;18.73;41.27
16613;BME280;8419;52.358;9.752;2023-03-22T01:25:31;100361.00;;;18.86;41.05
16613;BME280;8419;52.358;9.752;2023-03-22T01:28:17;100358.00;;;18.83;41.12
16613;BME280;8419;52.358;9.752;2023-03-22T01:31:02;100364.00;;;18.80;41.21
16613;BME280;8419;52.358;9.752;2023-03-22T01:33:50;100360.00;;;18.81;41.20
16613;BME280;8419;52.358;9.752;2023-03-22T01:36:35;100355.00;;;18.81;41.23
16613;BME280;8419;52.358;9.752;2023-03-22T01:39:20;100365.00;;;18.84;41.18
16613;BME280;8419;52.358;9.752;2023-03-22T01:42:08;100355.00;;;18.94;41.07
16613;BME280;8419;52.358;9.752;2023-03-22T01:45:25;100356.00;;;18.97;41.05
16613;BME280;8419;52.358;9.752;2023-03-22T01:48:18;100352.00;;;19.05;41.02
16613;BME280;8419;52.358;9.752;2023-03-22T01:51:08;100349.00;;;19.05;40.99
16613;BME280;8419;52.358;9.752;2023-03-22T01:53:57;100345.00;;;19.15;40.89
16613;BME280;8419;52.358;9.752;2023-03-22T01:56:46;100337.00;;;19.18;40.87
16613;BME280;8419;52.358;9.752;2023-03-22T01:59:31;100337.00;;;19.22;40.84
16613;BME280;8419;52.358;9.752;2023-03-22T02:02:16;100338.00;;;19.26;40.77
16613;BME280;8419;52.358;9.752;2023-03-22T02:05:03;100340.00;;;19.28;40.73
16613;BME280;8419;52.358;9.752;2023-03-22T02:07:51;100328.00;;;19.29;40.73
16613;BME280;8419;52.358;9.752;2023-03-22T02:10:38;100336.00;;;19.27;40.76
16613;BME280;8419;52.358;9.752;2023-03-22T02:13:37;100324.00;;;19.25;40.75
16613;BME280;8419;52.358;9.752;2023-03-22T02:16:35;100328.00;;;19.29;40.72
16613;BME280;8419;52.358;9.752;2023-03-22T02:19:56;100319.00;;;19.29;40.65
16613;BME280;8419;52.358;9.752;2023-03-22T02:23:11;100323.00;;;19.26;40.69
16613;BME280;8419;52.358;9.752;2023-03-22T02:26:42;100324.00;;;19.31;40.54
16613;BME280;8419;52.358;9.752;2023-03-22T02:29:36;100321.00;;;19.12;40.88
16613;BME280;8419;52.358;9.752;2023-03-22T02:36:10;100317.00;;;19.23;40.65
16613;BME280;8419;52.358;9.752;2023-03-22T02:39:16;100308.00;;;19.09;40.83
16613;BME280;8419;52.358;9.752;2023-03-22T02:42:23;100309.00;;;19.07;40.89
16613;BME280;8419;52.358;9.752;2023-03-22T02:45:16;100310.00;;;19.04;40.91
16613;BME280;8419;52.358;9.752;2023-03-22T02:48:06;100306.00;;;18.96;41.01
16613;BME280;8419;52.358;9.752;2023-03-22T02:50:58;100304.00;;;18.95;41.08
16613;BME280;8419;52.358;9.752;2023-03-22T02:53:49;100313.00;;;19.06;40.94
16613;BME280;8419;52.358;9.752;2023-03-22T02:56:43;100306.00;;;19.16;40.79
16613;BME280;8419;52.358;9.752;2023-03-22T02:59:32;100307.00;;;19.10;40.88
16613;BME280;8419;52.358;9.752;2023-03-22T03:02:21;100302.00;;;19.15;40.83
16613;BME280;8419;52.358;9.752;2023-03-22T03:05:09;100311.00;;;19.15;40.82
16613;BME280;8419;52.358;9.752;2023-03-22T03:07:59;100298.00;;;19.13;40.89
16613;BME280;8419;52.358;9.752;2023-03-22T03:10:47;100308.00;;;19.18;40.81
16613;BME280;8419;52.358;9.752;2023-03-22T03:13:33;100301.00;;;19.16;40.86
16613;BME280;8419;52.358;9.752;2023-03-22T03:16:23;100300.00;;;19.22;40.74
16613;BME280;8419;52.358;9.752;2023-03-22T03:19:14;100300.00;;;19.18;40.83
16613;BME280;8419;52.358;9.752;2023-03-22T03:22:15;100295.00;;;19.25;40.66
16613;BME280;8419;52.358;9.752;2023-03-22T03:25:10;100288.00;;;19.21;40.78
16613;BME280;8419;52.358;9.752;2023-03-22T03:28:06;100294.00;;;19.28;40.67
16613;BME280;8419;52.358;9.752;2023-03-22T03:30:59;100296.00;;;19.26;40.71
16613;BME280;8419;52.358;9.752;2023-03-22T03:33:56;100298.00;;;19.32;40.63
16613;BME280;8419;52.358;9.752;2023-03-22T03:36:50;100298.00;;;19.35;40.53
16613;BME280;8419;52.358;9.752;2023-03-22T03:39:42;100294.00;;;19.37;40.49
16613;BME280;8419;52.358;9.752;2023-03-22T03:42:29;100284.00;;;19.32;40.59
16613;BME280;8419;52.358;9.752;2023-03-22T03:45:17;100287.00;;;19.27;40.72
16613;BME280;8419;52.358;9.752;2023-03-22T03:48:07;100279.00;;;19.29;40.66
16613;BME280;8419;52.358;9.752;2023-03-22T03:50:55;100281.00;;;19.23;40.76
16613;BME280;8419;52.358;9.752;2023-03-22T03:53:41;100276.00;;;19.27;40.68
16613;BME280;8419;52.358;9.752;2023-03-22T03:56:27;100271.00;;;19.22;40.79
16613;BME280;8419;52.358;9.752;2023-03-22T03:59:13;100263.00;;;19.29;40.66
16613;BME280;8419;52.358;9.752;2023-03-22T04:02:01;100265.00;;;19.24;40.73
16613;BME280;8419;52.358;9.752;2023-03-22T04:04:46;100266.00;;;19.19;40.85
16613;BME280;8419;52.358;9.752;2023-03-22T04:07:32;100262.00;;;19.28;40.67
16613;BME280;8419;52.358;9.752;2023-03-22T04:10:18;100267.00;;;19.28;40.67
16613;BME280;8419;52.358;9.752;2023-03-22T04:13:04;100260.00;;;19.25;40.69
16613;BME280;8419;52.358;9.752;2023-03-22T04:15:52;100254.00;;;19.15;40.89
16613;BME280;8419;52.358;9.752;2023-03-22T04:18:38;100254.00;;;19.09;41.05
16613;BME280;8419;52.358;9.752;2023-03-22T04:21:24;100254.00;;;19.17;40.85
16613;BME280;8419;52.358;9.752;2023-03-22T04:24:09;100249.00;;;19.03;41.19
16613;BME280;8419;52.358;9.752;2023-03-22T04:26:56;100251.00;;;18.96;41.29
16613;BME280;8419;52.358;9.752;2023-03-22T04:29:42;100248.00;;;18.95;41.31
16613;BME280;8419;52.358;9.752;2023-03-22T04:32:31;100247.00;;;18.98;41.28
16613;BME280;8419;52.358;9.752;2023-03-22T04:35:20;100248.00;;;19.07;41.11
16613;BME280;8419;52.358;9.752;2023-03-22T04:38:05;100251.00;;;19.15;40.96
16613;BME280;8419;52.358;9.752;2023-03-22T04:40:51;100247.00;;;19.19;40.88
16613;BME280;8419;52.358;9.752;2023-03-22T04:43:37;100237.00;;;19.15;41.00
16613;BME280;8419;52.358;9.752;2023-03-22T04:46:23;100248.00;;;19.23;40.83
16613;BME280;8419;52.358;9.752;2023-03-22T04:49:09;100241.00;;;19.22;40.82
16613;BME280;8419;52.358;9.752;2023-03-22T04:51:56;100240.00;;;19.18;40.92
16613;BME280;8419;52.358;9.752;2023-03-22T04:54:42;100231.00;;;19.16;40.98
16613;BME280;8419;52.358;9.752;2023-03-22T04:57:27;100245.00;;;19.16;40.99
16613;BME280;8419;52.358;9.752;2023-03-22T05:00:14;100241.00;;;19.22;40.92
16613;BME280;8419;52.358;9.752;2023-03-22T05:03:01;100239.00;;;19.17;41.00
16613;BME280;8419;52.358;9.752;2023-03-22T05:05:52;100242.00;;;19.19;40.99
16613;BME280;8419;52.358;9.752;2023-03-22T05:08:39;100240.00;;;19.19;40.96
16613;BME280;8419;52.358;9.752;2023-03-22T05:11:25;100240.00;;;19.23;40.89
16613;BME280;8419;52.358;9.752;2023-03-22T05:14:11;100235.00;;;19.20;40.90
16613;BME280;8419;52.358;9.752;2023-03-22T05:16:57;100233.00;;;19.11;41.09
16613;BME280;8419;52.358;9.752;2023-03-22T05:19:44;100241.00;;;19.12;41.11
16613;BME280;8419;52.358;9.752;2023-03-22T05:22:30;100238.00;;;19.17;41.05
16613;BME280;8419;52.358;9.752;2023-03-22T05:25:15;100233.00;;;19.25;40.89
16613;BME280;8419;52.358;9.752;2023-03-22T05:28:01;100236.00;;;19.28;40.82
16613;BME280;8419;52.358;9.752;2023-03-22T05:30:48;100238.00;;;19.20;41.01
16613;BME280;8419;52.358;9.752;2023-03-22T05:33:34;100240.00;;;19.15;41.14
16613;BME280;8419;52.358;9.752;2023-03-22T05:36:21;100231.00;;;19.19;41.12
16613;BME280;8419;52.358;9.752;2023-03-22T05:39:07;100231.00;;;19.24;41.01
16613;BME280;8419;52.358;9.752;2023-03-22T05:41:52;100236.00;;;19.19;41.14
16613;BME280;8419;52.358;9.752;2023-03-22T05:44:38;100229.00;;;19.29;40.96
16613;BME280;8419;52.358;9.752;2023-03-22T05:47:23;100230.00;;;19.28;41.05
16613;BME280;8419;52.358;9.752;2023-03-22T05:50:11;100225.00;;;19.28;41.11
16613;BME280;8419;52.358;9.752;2023-03-22T05:52:57;100218.00;;;19.23;41.31
16613;BME280;8419;52.358;9.752;2023-03-22T05:55:43;100222.00;;;19.34;41.05
16613;BME280;8419;52.358;9.752;2023-03-22T05:58:29;100227.00;;;19.46;40.86
16613;BME280;8419;52.358;9.752;2023-03-22T06:01:15;100224.00;;;19.47;40.85
16613;BME280;8419;52.358;9.752;2023-03-22T06:04:00;100211.00;;;19.49;40.82
16613;BME280;8419;52.358;9.752;2023-03-22T06:06:46;100205.00;;;19.52;40.76
16613;BME280;8419;52.358;9.752;2023-03-22T06:09:31;100207.00;;;19.56;40.68
16613;BME280;8419;52.358;9.752;2023-03-22T06:12:20;100217.00;;;19.64;40.57
16613;BME280;8419;52.358;9.752;2023-03-22T06:15:10;100199.00;;;19.67;40.50
16613;BME280;8419;52.358;9.752;2023-03-22T06:17:56;100204.00;;;19.64;40.56
16613;BME280;8419;52.358;9.752;2023-03-22T06:20:41;100206.00;;;19.65;40.57
16613;BME280;8419;52.358;9.752;2023-03-22T06:23:28;100204.00;;;19.72;40.46
16613;BME280;8419;52.358;9.752;2023-03-22T06:26:13;100188.00;;;19.73;40.43
16613;BME280;8419;52.358;9.752;2023-03-22T06:28:58;100199.00;;;19.77;40.40
16613;BME280;8419;52.358;9.752;2023-03-22T06:31:43;100187.00;;;19.86;40.24
16613;BME280;8419;52.358;9.752;2023-03-22T06:34:28;100184.00;;;19.86;40.26
16613;BME280;8419;52.358;9.752;2023-03-22T06:37:14;100192.00;;;19.89;40.31
16613;BME280;8419;52.358;9.752;2023-03-22T06:40:01;100207.00;;;20.01;40.07
16613;BME280;8419;52.358;9.752;2023-03-22T06:42:46;100205.00;;;20.03;40.11
16613;BME280;8419;52.358;9.752;2023-03-22T06:45:32;100213.00;;;20.14;39.89
16613;BME280;8419;52.358;9.752;2023-03-22T06:48:17;100212.00;;;20.17;39.90
16613;BME280;8419;52.358;9.752;2023-03-22T06:51:03;100208.00;;;20.24;39.87
16613;BME280;8419;52.358;9.752;2023-03-22T06:53:50;100204.00;;;20.38;39.70
16613;BME280;8419;52.358;9.752;2023-03-22T06:56:35;100205.00;;;20.54;39.51
16613;BME280;8419;52.358;9.752;2023-03-22T06:59:21;100194.00;;;20.67;39.34
16613;BME280;8419;52.358;9.752;2023-03-22T07:02:08;100200.00;;;20.71;39.27
16613;BME280;8419;52.358;9.752;2023-03-22T07:04:56;100197.00;;;20.63;39.40
16613;BME280;8419;52.358;9.752;2023-03-22T07:07:43;100192.00;;;20.53;39.52
16613;BME280;8419;52.358;9.752;2023-03-22T07:10:29;100202.00;;;20.40;39.64
16613;BME280;8419;52.358;9.752;2023-03-22T07:13:15;100200.00;;;20.29;39.79
16613;BME280;8419;52.358;9.752;2023-03-22T07:16:04;100202.00;;;20.14;39.99
16613;BME280;8419;52.358;9.752;2023-03-22T07:18:50;100202.00;;;20.01;40.23
16613;BME280;8419;52.358;9.752;2023-03-22T07:21:35;100208.00;;;20.08;40.10
16613;BME280;8419;52.358;9.752;2023-03-22T07:24:21;100208.00;;;20.13;39.99
16613;BME280;8419;52.358;9.752;2023-03-22T07:27:06;100215.00;;;20.18;40.01
16613;BME280;8419;52.358;9.752;2023-03-22T07:29:54;100211.00;;;20.34;39.84
16613;BME280;8419;52.358;9.752;2023-03-22T07:32:40;100217.00;;;20.52;39.67
16613;BME280;8419;52.358;9.752;2023-03-22T07:35:25;100203.00;;;20.73;39.45
16613;BME280;8419;52.358;9.752;2023-03-22T07:38:10;100201.00;;;20.94;39.05
16613;BME280;8419;52.358;9.752;2023-03-22T07:40:57;100201.00;;;20.97;39.02
16613;BME280;8419;52.358;9.752;2023-03-22T07:43:42;100193.00;;;21.09;38.83
16613;BME280;8419;52.358;9.752;2023-03-22T07:46:28;100191.00;;;21.11;38.81
16613;BME280;8419;52.358;9.752;2023-03-22T07:49:13;100187.00;;;21.11;38.81
16613;BME280;8419;52.358;9.752;2023-03-22T07:51:59;100192.00;;;21.21;38.74
16613;BME280;8419;52.358;9.752;2023-03-22T07:54:45;100194.00;;;21.36;38.57
16613;BME280;8419;52.358;9.752;2023-03-22T07:57:30;100191.00;;;21.53;38.42
16613;BME280;8419;52.358;9.752;2023-03-22T08:00:17;100190.00;;;21.74;38.09
16613;BME280;8419;52.358;9.752;2023-03-22T08:03:03;100184.00;;;22.23;37.52
16613;BME280;8419;52.358;9.752;2023-03-22T08:05:52;100188.00;;;22.40;37.38
16613;BME280;8419;52.358;9.752;2023-03-22T08:08:39;100186.00;;;22.60;37.21
16613;BME280;8419;52.358;9.752;2023-03-22T08:11:25;100177.00;;;22.90;36.80
16613;BME280;8419;52.358;9.752;2023-03-22T08:14:10;100177.00;;;22.96;36.61
16613;BME280;8419;52.358;9.752;2023-03-22T08:16:56;100182.00;;;23.00;36.57
16613;BME280;8419;52.358;9.752;2023-03-22T08:19:42;100176.00;;;23.06;36.40
16613;BME280;8419;52.358;9.752;2023-03-22T08:22:29;100176.00;;;23.09;36.34
16613;BME280;8419;52.358;9.752;2023-03-22T08:25:14;100167.00;;;23.14;36.25
16613;BME280;8419;52.358;9.752;2023-03-22T08:28:00;100167.00;;;23.24;36.05
16613;BME280;8419;52.358;9.752;2023-03-22T08:30:47;100157.00;;;23.33;35.96
16613;BME280;8419;52.358;9.752;2023-03-22T08:33:33;100157.00;;;23.34;35.70
16613;BME280;8419;52.358;9.752;2023-03-22T08:36:20;100153.00;;;23.21;35.72
16613;BME280;8419;52.358;9.752;2023-03-22T08:39:07;100147.00;;;23.30;35.66
16613;BME280;8419;52.358;9.752;2023-03-22T08:41:53;100142.00;;;23.27;35.52
16613;BME280;8419;52.358;9.752;2023-03-22T08:44:38;100144.00;;;23.22;35.43
16613;BME280;8419;52.358;9.752;2023-03-22T08:47:24;100138.00;;;23.22;35.16
16613;BME280;8419;52.358;9.752;2023-03-22T08:50:10;100140.00;;;23.35;34.89
16613;BME280;8419;52.358;9.752;2023-03-22T08:52:56;100124.00;;;23.42;34.81
16613;BME280;8419;52.358;9.752;2023-03-22T08:55:42;100122.00;;;23.36;34.80
16613;BME280;8419;52.358;9.752;2023-03-22T08:58:28;100125.00;;;23.33;34.75
16613;BME280;8419;52.358;9.752;2023-03-22T09:01:15;100121.00;;;23.39;34.63
16613;BME280;8419;52.358;9.752;2023-03-22T09:04:01;100116.00;;;23.50;34.51
16613;BME280;8419;52.358;9.752;2023-03-22T09:06:46;100134.00;;;23.58;34.37
16613;BME280;8419;52.358;9.752;2023-03-22T09:09:32;100123.00;;;23.63;34.44
16613;BME280;8419;52.358;9.752;2023-03-22T09:12:17;100128.00;;;23.61;34.43
16613;BME280;8419;52.358;9.752;2023-03-22T09:15:10;100125.00;;;23.51;34.52
16613;BME280;8419;52.358;9.752;2023-03-22T09:17:55;100122.00;;;23.46;34.46
16613;BME280;8419;52.358;9.752;2023-03-22T09:20:40;100117.00;;;23.48;34.39
16613;BME280;8419;52.358;9.752;2023-03-22T09:23:28;100103.00;;;23.56;34.34
16613;BME280;8419;52.358;9.752;2023-03-22T09:26:18;100103.00;;;23.48;34.29
16613;BME280;8419;52.358;9.752;2023-03-22T09:29:03;100095.00;;;23.54;34.28
16613;BME280;8419;52.358;9.752;2023-03-22T09:31:49;100090.00;;;23.67;34.13
16613;BME280;8419;52.358;9.752;2023-03-22T09:34:35;100083.00;;;23.60;34.19
16613;BME280;8419;52.358;9.752;2023-03-22T09:37:21;100083.00;;;23.81;33.87
16613;BME280;8419;52.358;9.752;2023-03-22T09:40:15;100076.00;;;23.93;33.84
16613;BME280;8419;52.358;9.752;2023-03-22T09:43:03;100071.00;;;24.09;33.78
16613;BME280;8419;52.358;9.752;2023-03-22T09:45:50;100079.00;;;24.29;33.42
16613;BME280;8419;52.358;9.752;2023-03-22T09:48:39;100073.00;;;24.09;33.50
16613;BME280;8419;52.358;9.752;2023-03-22T09:51:35;100074.00;;;23.88;33.78
16613;BME280;8419;52.358;9.752;2023-03-22T09:54:32;100064.00;;;24.04;33.77
16613;BME280;8419;52.358;9.752;2023-03-22T09:57:23;100064.00;;;24.36;33.07
16613;BME280;8419;52.358;9.752;2023-03-22T10:00:16;100065.00;;;24.51;32.80
16613;BME280;8419;52.358;9.752;2023-03-22T10:03:17;100057.00;;;24.45;32.46
16613;BME280;8419;52.358;9.752;2023-03-22T10:06:11;100048.00;;;24.30;32.46
16613;BME280;8419;52.358;9.752;2023-03-22T10:09:05;100051.00;;;24.22;32.39
16613;BME280;8419;52.358;9.752;2023-03-22T10:11:54;100061.00;;;24.25;32.34
16613;BME280;8419;52.358;9.752;2023-03-22T10:14:48;100045.00;;;23.97;32.38
16613;BME280;8419;52.358;9.752;2023-03-22T10:17:35;100051.00;;;23.92;32.35
16613;BME280;8419;52.358;9.752;2023-03-22T10:20:32;100043.00;;;23.71;32.53
16613;BME280;8419;52.358;9.752;2023-03-22T10:23:26;100046.00;;;24.09;32.22
16613;BME280;8419;52.358;9.752;2023-03-22T10:26:19;100029.00;;;24.27;31.82
16613;BME280;8419;52.358;9.752;2023-03-22T10:29:12;100028.00;;;24.38;31.54
16613;BME280;8419;52.358;9.752;2023-03-22T10:32:11;100043.00;;;24.79;31.08
16613;BME280;8419;52.358;9.752;2023-03-22T10:34:58;100038.00;;;24.99;30.60
16613;BME280;8419;52.358;9.752;2023-03-22T10:37:45;100033.00;;;24.98;30.35
16613;BME280;8419;52.358;9.752;2023-03-22T10:40:34;100031.00;;;25.11;30.15
16613;BME280;8419;52.358;9.752;2023-03-22T10:43:22;100031.00;;;25.30;29.81
16613;BME280;8419;52.358;9.752;2023-03-22T10:46:15;100021.00;;;25.60;29.56
16613;BME280;8419;52.358;9.752;2023-03-22T10:49:04;100045.00;;;25.82;29.35
16613;BME280;8419;52.358;9.752;2023-03-22T10:51:54;100033.00;;;26.13;28.90
16613;BME280;8419;52.358;9.752;2023-03-22T10:54:41;100044.00;;;26.20;28.66
16613;BME280;8419;52.358;9.752;2023-03-22T10:57:27;100039.00;;;26.21;28.60
16613;BME280;8419;52.358;9.752;2023-03-22T11:00:16;100044.00;;;26.01;28.57
16613;BME280;8419;52.358;9.752;2023-03-22T11:03:01;100035.00;;;25.79;28.67
16613;BME280;8419;52.358;9.752;2023-03-22T11:05:58;100026.00;;;25.65;28.71
16613;BME280;8419;52.358;9.752;2023-03-22T11:08:46;100026.00;;;25.67;28.70
16613;BME280;8419;52.358;9.752;2023-03-22T11:11:37;100042.00;;;25.71;28.63
16613;BME280;8419;52.358;9.752;2023-03-22T11:14:28;100029.00;;;25.68;28.63
16613;BME280;8419;52.358;9.752;2023-03-22T11:17:16;100015.00;;;25.71;28.52
16613;BME280;8419;52.358;9.752;2023-03-22T11:20:13;100020.00;;;25.73;28.47
16613;BME280;8419;52.358;9.752;2023-03-22T11:23:04;100027.00;;;25.85;28.40
16613;BME280;8419;52.358;9.752;2023-03-22T11:25:51;100000.00;;;25.99;28.18
16613;BME280;8419;52.358;9.752;2023-03-22T11:28:44;100024.00;;;26.03;28.02
16613;BME280;8419;52.358;9.752;2023-03-22T11:31:49;100029.00;;;25.96;28.06
16613;BME280;8419;52.358;9.752;2023-03-22T11:34:34;100028.00;;;25.97;28.05
16613;BME280;8419;52.358;9.752;2023-03-22T11:37:21;100036.00;;;25.86;28.07
16613;BME280;8419;52.358;9.752;2023-03-22T11:40:13;100029.00;;;25.75;28.07
16613;BME280;8419;52.358;9.752;2023-03-22T11:43:12;100030.00;;;25.69;28.15
16613;BME280;8419;52.358;9.752;2023-03-22T11:46:00;100022.00;;;25.76;28.25
16613;BME280;8419;52.358;9.752;2023-03-22T11:48:47;100043.00;;;25.98;27.62
16613;BME280;8419;52.358;9.752;2023-03-22T11:51:36;100028.00;;;26.10;27.36
16613;BME280;8419;52.358;9.752;2023-03-22T11:54:28;100039.00;;;26.04;27.47
16613;BME280;8419;52.358;9.752;2023-03-22T11:57:16;100032.00;;;26.11;27.12
16613;BME280;8419;52.358;9.752;2023-03-22T12:00:15;100038.00;;;26.13;26.80
16613;BME280;8419;52.358;9.752;2023-03-22T12:03:09;100017.00;;;26.46;26.68
16613;BME280;8419;52.358;9.752;2023-03-22T12:06:03;100025.00;;;26.54;26.48
16613;BME280;8419;52.358;9.752;2023-03-22T12:08:55;100029.00;;;26.67;26.26
16613;BME280;8419;52.358;9.752;2023-03-22T12:11:46;100028.00;;;26.50;26.37
16613;BME280;8419;52.358;9.752;2023-03-22T12:14:39;100024.00;;;26.18;26.35
16613;BME280;8419;52.358;9.752;2023-03-22T12:17:34;100056.00;;;26.34;26.35
16613;BME280;8419;52.358;9.752;2023-03-22T12:20:30;100036.00;;;26.45;25.94
16613;BME280;8419;52.358;9.752;2023-03-22T12:23:19;100025.00;;;26.60;25.69
16613;BME280;8419;52.358;9.752;2023-03-22T12:26:10;100041.00;;;26.36;25.78
16613;BME280;8419;52.358;9.752;2023-03-22T12:29:00;100029.00;;;26.11;25.94
16613;BME280;8419;52.358;9.752;2023-03-22T12:31:55;100026.00;;;25.93;26.04
16613;BME280;8419;52.358;9.752;2023-03-22T12:34:46;100036.00;;;26.05;26.05
16613;BME280;8419;52.358;9.752;2023-03-22T12:37:35;100043.00;;;26.16;26.04
16613;BME280;8419;52.358;9.752;2023-03-22T12:40:27;100018.00;;;26.04;25.95
16613;BME280;8419;52.358;9.752;2023-03-22T12:43:16;100015.00;;;26.12;25.92
16613;BME280;8419;52.358;9.752;2023-03-22T12:46:12;100043.00;;;25.95;26.33
16613;BME280;8419;52.358;9.752;2023-03-22T12:49:04;100017.00;;;25.74;26.44
16613;BME280;8419;52.358;9.752;2023-03-22T12:51:51;100013.00;;;25.79;26.47
16613;BME280;8419;52.358;9.752;2023-03-22T12:54:40;100020.00;;;25.86;26.30
16613;BME280;8419;52.358;9.752;2023-03-22T12:57:27;100016.00;;;25.74;26.33
16613;BME280;8419;52.358;9.752;2023-03-22T13:00:15;100011.00;;;25.74;26.22
16613;BME280;8419;52.358;9.752;2023-03-22T13:03:06;100003.00;;;25.89;26.19
16613;BME280;8419;52.358;9.752;2023-03-22T13:06:01;100013.00;;;25.95;26.09
16613;BME280;8419;52.358;9.752;2023-03-22T13:09:12;100005.00;;;26.06;25.78
16613;BME280;8419;52.358;9.752;2023-03-22T13:12:27;99993.00;;;25.86;25.97
16613;BME280;8419;52.358;9.752;2023-03-22T13:15:31;99985.00;;;25.94;26.08
16613;BME280;8419;52.358;9.752;2023-03-22T13:18:30;99984.00;;;26.07;25.90
16613;BME280;8419;52.358;9.752;2023-03-22T13:21:24;99988.00;;;26.03;25.99
16613;BME280;8419;52.358;9.752;2023-03-22T13:24:24;99989.00;;;25.98;25.97
16613;BME280;8419;52.358;9.752;2023-03-22T13:27:12;99989.00;;;26.11;25.94
16613;BME280;8419;52.358;9.752;2023-03-22T13:29:59;99981.00;;;25.92;26.10
16613;BME280;8419;52.358;9.752;2023-03-22T13:32:50;99978.00;;;25.88;26.16
16613;BME280;8419;52.358;9.752;2023-03-22T13:35:42;99978.00;;;25.59;26.35
16613;BME280;8419;52.358;9.752;2023-03-22T13:38:31;99988.00;;;25.60;26.41
16613;BME280;8419;52.358;9.752;2023-03-22T13:41:23;99994.00;;;25.52;26.30
16613;BME280;8419;52.358;9.752;2023-03-22T13:44:23;99986.00;;;25.43;26.45
16613;BME280;8419;52.358;9.752;2023-03-22T13:47:32;99988.00;;;25.39;26.56
16613;BME280;8419;52.358;9.752;2023-03-22T13:50:20;99980.00;;;25.16;26.80
16613;BME280;8419;52.358;9.752;2023-03-22T13:53:14;99985.00;;;25.00;27.08
16613;BME280;8419;52.358;9.752;2023-03-22T13:56:12;99989.00;;;24.93;27.21
16613;BME280;8419;52.358;9.752;2023-03-22T13:58:58;99992.00;;;24.84;27.26
16613;BME280;8419;52.358;9.752;2023-03-22T14:01:48;99989.00;;;24.92;27.20
16613;BME280;8419;52.358;9.752;2023-03-22T14:04:40;99997.00;;;24.95;27.20
16613;BME280;8419;52.358;9.752;2023-03-22T14:07:30;99999.00;;;25.02;27.16
16613;BME280;8419;52.358;9.752;2023-03-22T14:10:20;100000.00;;;25.01;27.46
16613;BME280;8419;52.358;9.752;2023-03-22T14:13:15;100004.00;;;24.96;27.73
16613;BME280;8419;52.358;9.752;2023-03-22T14:16:08;99997.00;;;24.78;28.21
16613;BME280;8419;52.358;9.752;2023-03-22T14:18:56;100007.00;;;24.85;28.17
16613;BME280;8419;52.358;9.752;2023-03-22T14:21:45;100003.00;;;24.76;28.17
16613;BME280;8419;52.358;9.752;2023-03-22T14:24:32;99991.00;;;24.69;28.34
16613;BME280;8419;52.358;9.752;2023-03-22T14:27:20;100000.00;;;24.50;28.81
16613;BME280;8419;52.358;9.752;2023-03-22T14:30:18;100006.00;;;24.50;28.96
16613;BME280;8419;52.358;9.752;2023-03-22T14:33:11;99997.00;;;24.43;29.20
16613;BME280;8419;52.358;9.752;2023-03-22T14:36:00;99986.00;;;24.35;29.32
16613;BME280;8419;52.358;9.752;2023-03-22T14:38:50;99998.00;;;24.31;29.51
16613;BME280;8419;52.358;9.752;2023-03-22T14:41:37;99992.00;;;24.45;29.50
16613;BME280;8419;52.358;9.752;2023-03-22T14:44:42;99985.00;;;24.47;29.46
16613;BME280;8419;52.358;9.752;2023-03-22T14:47:30;99987.00;;;24.62;29.37
16613;BME280;8419;52.358;9.752;2023-03-22T14:50:19;99991.00;;;24.56;29.52
16613;BME280;8419;52.358;9.752;2023-03-22T14:53:08;99987.00;;;24.48;29.67
16613;BME280;8419;52.358;9.752;2023-03-22T14:55:54;100001.00;;;24.49;29.59
16613;BME280;8419;52.358;9.752;2023-03-22T14:58:40;99998.00;;;24.45;29.60
16613;BME280;8419;52.358;9.752;2023-03-22T15:01:30;100002.00;;;24.41;29.61
16613;BME280;8419;52.358;9.752;2023-03-22T15:04:18;99990.00;;;24.47;29.56